createdAt,value
2022-08-23T00:01:24.448Z,26.38
2022-08-23T00:03:53.112Z,26.65
2022-08-23T00:06:22.823Z,26.65
2022-08-23T00:08:52.120Z,26.23
2022-08-23T00:11:33.803Z,31.35
2022-08-23T00:14:06.483Z,28.85
2022-08-23T00:16:34.054Z,28.25
2022-08-23T00:19:02.765Z,27.20
2022-08-23T00:21:30.798Z,28.15
2022-08-23T00:23:58.333Z,27.73
2022-08-23T00:26:26.139Z,30.55
2022-08-23T00:28:53.913Z,28.15
2022-08-23T00:31:21.560Z,28.92
2022-08-23T00:33:49.103Z,30.23
2022-08-23T00:36:16.652Z,27.33
2022-08-23T00:38:44.076Z,33.83
2022-08-23T00:41:11.462Z,36.70
2022-08-23T00:44:00.338Z,35.78
2022-08-23T00:47:05.169Z,32.10
2022-08-23T00:49:34.557Z,34.85
2022-08-23T00:52:23.125Z,32.40
2022-08-23T00:54:53.576Z,34.40
2022-08-23T00:57:22.269Z,37.30
2022-08-23T00:59:49.918Z,29.33
2022-08-23T01:02:17.913Z,29.98
2022-08-23T01:04:53.701Z,32.20
2022-08-23T01:07:35.929Z,32.67
2022-08-23T01:10:09.415Z,32.35
2022-08-23T01:12:48.957Z,32.97
2022-08-23T01:15:57.125Z,40.38
2022-08-23T01:18:27.057Z,33.78
2022-08-23T01:21:23.982Z,29.77
2022-08-23T01:23:55.991Z,39.72
2022-08-23T01:26:25.255Z,31.27
2022-08-23T01:28:53.976Z,30.75
2022-08-23T01:31:24.560Z,31.73
2022-08-23T01:33:59.997Z,36.88
2022-08-23T01:36:27.708Z,34.75
2022-08-23T01:38:55.470Z,40.83
2022-08-23T01:41:22.921Z,35.22
2022-08-23T01:43:50.606Z,32.13
2022-08-23T01:46:21.155Z,31.58
2022-08-23T01:48:49.879Z,29.38
2022-08-23T01:51:19.659Z,34.13
2022-08-23T01:53:47.315Z,34.20
2022-08-23T01:56:16.029Z,31.35
2022-08-23T01:58:43.422Z,30.98
2022-08-23T02:01:11.008Z,34.22
2022-08-23T02:03:38.530Z,37.10
2022-08-23T02:06:06.421Z,36.53
2022-08-23T02:08:52.381Z,33.42
2022-08-23T02:11:22.813Z,31.20
2022-08-23T02:13:52.061Z,34.35
2022-08-23T02:16:28.990Z,33.60
2022-08-23T02:18:57.600Z,32.67
2022-08-23T02:21:27.455Z,36.13
2022-08-23T02:23:55.051Z,30.83
2022-08-23T02:26:30.795Z,32.75
2022-08-23T02:28:59.087Z,36.22
2022-08-23T02:31:26.771Z,32.20
2022-08-23T02:33:55.136Z,39.85
2022-08-23T02:36:23.570Z,35.75
2022-08-23T02:38:51.621Z,35.28
2022-08-23T02:41:19.124Z,36.45
2022-08-23T02:43:46.630Z,36.13
2022-08-23T02:46:14.588Z,35.70
2022-08-23T02:48:42.217Z,38.55
2022-08-23T02:51:11.951Z,37.72
2022-08-23T02:53:40.611Z,34.80
2022-08-23T02:56:21.180Z,33.83
2022-08-23T02:58:54.165Z,40.20
2022-08-23T03:01:28.807Z,42.30
2022-08-23T03:03:57.429Z,35.38
2022-08-23T03:06:26.464Z,32.97
2022-08-23T03:08:57.689Z,42.40
2022-08-23T03:11:26.573Z,39.50
2022-08-23T03:13:56.434Z,37.03
2022-08-23T03:16:24.810Z,48.17
2022-08-23T03:18:52.726Z,42.78
2022-08-23T03:21:21.283Z,35.63
2022-08-23T03:23:49.039Z,39.38
2022-08-23T03:26:17.039Z,36.80
2022-08-23T03:28:46.346Z,36.85
2022-08-23T03:31:15.517Z,34.92
2022-08-23T03:33:42.995Z,34.03
2022-08-23T03:36:12.264Z,31.75
2022-08-23T03:38:40.783Z,41.00
2022-08-23T03:41:08.446Z,29.35
2022-08-23T03:43:36.555Z,34.03
2022-08-23T03:46:04.586Z,38.40
2022-08-23T03:48:31.923Z,41.40
2022-08-23T03:51:00.340Z,34.92
2022-08-23T03:53:27.606Z,35.38
2022-08-23T03:55:56.486Z,35.25
2022-08-23T03:58:24.566Z,36.72
2022-08-23T04:00:52.175Z,37.67
2022-08-23T04:03:19.613Z,39.75
2022-08-23T04:05:47.455Z,37.17
2022-08-23T04:08:15.162Z,31.52
2022-08-23T04:10:49.691Z,38.50
2022-08-23T04:13:16.810Z,39.90
2022-08-23T04:15:44.436Z,31.38
2022-08-23T04:18:11.590Z,35.30
2022-08-23T04:20:39.365Z,36.58
2022-08-23T04:23:06.862Z,32.45
2022-08-23T04:25:35.684Z,36.28
2022-08-23T04:28:03.786Z,29.60
2022-08-23T04:30:31.695Z,29.67
2022-08-23T04:32:59.360Z,33.72
2022-08-23T04:35:30.028Z,30.40
2022-08-23T04:37:57.663Z,30.90
2022-08-23T04:40:44.065Z,30.00
2022-08-23T04:43:11.758Z,30.83
2022-08-23T04:45:40.382Z,32.83
2022-08-23T04:48:11.999Z,33.33
2022-08-23T04:50:39.755Z,33.97
2022-08-23T04:53:07.563Z,28.02
2022-08-23T04:55:36.471Z,30.90
2022-08-23T04:58:05.076Z,30.92
2022-08-23T05:00:32.684Z,25.85
2022-08-23T05:03:00.358Z,27.08
2022-08-23T05:05:27.896Z,25.38
2022-08-23T05:07:55.718Z,23.63
2022-08-23T05:10:23.589Z,27.90
2022-08-23T05:12:50.696Z,25.08
2022-08-23T05:15:18.364Z,32.83
2022-08-23T05:17:45.833Z,32.50
2022-08-23T05:20:13.537Z,26.50
2022-08-23T05:22:42.029Z,29.63
2022-08-23T05:25:09.849Z,31.35
2022-08-23T05:27:38.681Z,24.50
2022-08-23T05:30:07.263Z,26.83
2022-08-23T05:32:34.872Z,24.83
2022-08-23T05:35:02.135Z,25.73
2022-08-23T05:37:31.196Z,28.10
2022-08-23T05:39:58.768Z,31.50
2022-08-23T05:42:26.303Z,24.15
2022-08-23T05:44:53.762Z,25.38
2022-08-23T05:47:24.826Z,30.45
2022-08-23T05:49:53.071Z,25.67
2022-08-23T05:52:20.889Z,24.20
2022-08-23T05:54:48.468Z,26.35
2022-08-23T05:57:16.006Z,24.70
2022-08-23T05:59:43.479Z,24.10
2022-08-23T06:02:11.259Z,25.13
2022-08-23T06:04:38.789Z,25.77
2022-08-23T06:07:51.295Z,29.67
2022-08-23T06:10:09.588Z,20.35
2022-08-23T06:12:43.862Z,22.73
2022-08-23T06:15:11.857Z,27.00
2022-08-23T06:17:39.475Z,28.10
2022-08-23T06:20:08.095Z,25.38
2022-08-23T06:22:35.832Z,30.33
2022-08-23T06:25:05.510Z,24.27
2022-08-23T06:27:36.941Z,38.85
2022-08-23T06:30:04.908Z,32.20
2022-08-23T06:32:32.599Z,38.63
2022-08-23T06:35:31.451Z,38.95
2022-08-23T06:37:48.354Z,24.80
2022-08-23T06:40:15.851Z,31.83
2022-08-23T06:42:51.260Z,34.88
2022-08-23T06:45:18.723Z,35.40
2022-08-23T06:47:46.292Z,28.23
2022-08-23T06:50:13.834Z,27.27
2022-08-23T06:52:41.509Z,27.90
2022-08-23T06:55:13.511Z,22.98
2022-08-23T06:57:41.644Z,28.17
2022-08-23T07:00:11.392Z,29.10
2022-08-23T07:02:39.082Z,25.50
2022-08-23T07:05:07.534Z,28.00
2022-08-23T07:07:43.917Z,32.00
2022-08-23T07:10:11.934Z,27.35
2022-08-23T07:12:42.971Z,21.27
2022-08-23T07:15:12.157Z,19.67
2022-08-23T07:17:39.831Z,19.27
2022-08-23T07:20:07.712Z,19.88
2022-08-23T07:22:35.170Z,16.75
2022-08-23T07:25:04.040Z,22.42
2022-08-23T07:27:34.435Z,18.52
2022-08-23T07:30:02.739Z,22.23
2022-08-23T07:32:31.704Z,18.63
2022-08-23T07:34:59.633Z,20.20
2022-08-23T07:37:28.290Z,19.83
2022-08-23T07:39:58.479Z,23.55
2022-08-23T07:42:26.252Z,17.25
2022-08-23T07:44:54.450Z,22.33
2022-08-23T07:47:22.582Z,19.55
2022-08-23T07:49:51.056Z,18.95
2022-08-23T07:52:18.770Z,18.38
2022-08-23T07:54:48.327Z,20.48
2022-08-23T07:57:16.447Z,27.02
2022-08-23T07:59:43.590Z,19.42
2022-08-23T08:02:11.400Z,22.95
2022-08-23T08:04:39.026Z,23.85
2022-08-23T08:07:21.755Z,20.90
2022-08-23T08:12:33.429Z,12.00
2022-08-23T08:15:01.628Z,17.15
2022-08-23T08:17:31.116Z,15.35
2022-08-23T08:19:58.340Z,15.23
2022-08-23T08:22:26.072Z,18.52
2022-08-23T08:24:53.563Z,11.43
2022-08-23T08:27:21.647Z,20.00
2022-08-23T08:29:49.229Z,20.52
2022-08-23T08:32:17.602Z,16.80
2022-08-23T08:34:45.123Z,14.02
2022-08-23T08:37:12.878Z,15.55
2022-08-23T08:39:45.856Z,15.63
2022-08-23T08:42:13.585Z,18.40
2022-08-23T08:44:46.219Z,21.42
2022-08-23T08:47:25.648Z,16.58
2022-08-23T08:49:55.500Z,18.13
2022-08-23T08:52:45.083Z,15.85
2022-08-23T08:55:18.402Z,20.83
2022-08-23T08:57:48.551Z,14.68
2022-08-23T09:00:23.672Z,19.23
2022-08-23T09:02:51.565Z,16.27
2022-08-23T09:05:39.760Z,12.55
2022-08-23T09:08:22.335Z,12.30
2022-08-23T09:11:11.522Z,13.88
2022-08-23T09:13:53.820Z,17.15
2022-08-23T09:16:21.438Z,15.85
2022-08-23T09:18:49.416Z,18.38
2022-08-23T09:21:17.826Z,17.50
2022-08-23T09:23:47.622Z,18.05
2022-08-23T09:29:06.385Z,18.85
2022-08-23T09:31:50.888Z,15.07
2022-08-23T09:34:34.998Z,17.52
2022-08-23T09:37:10.052Z,14.88
2022-08-23T09:39:40.944Z,10.25
2022-08-23T09:42:43.916Z,12.98
2022-08-23T09:45:33.090Z,15.90
2022-08-23T09:48:03.139Z,11.63
2022-08-23T09:50:40.066Z,9.43
2022-08-23T09:53:14.407Z,16.02
2022-08-23T09:55:47.807Z,11.75
2022-08-23T09:58:29.245Z,9.80
2022-08-23T10:01:38.747Z,8.48
2022-08-23T10:04:08.717Z,11.25
2022-08-23T10:06:36.079Z,12.00
2022-08-23T10:09:06.146Z,10.90
2022-08-23T10:11:40.958Z,8.70
2022-08-23T10:14:10.443Z,9.18
2022-08-23T10:16:42.326Z,7.57
2022-08-23T10:19:15.556Z,15.32
2022-08-23T10:21:52.233Z,6.72
2022-08-23T10:24:29.894Z,11.77
2022-08-23T10:27:26.631Z,11.43
2022-08-23T10:30:02.898Z,12.85
2022-08-23T10:32:52.685Z,11.68
2022-08-23T10:35:38.566Z,7.38
2022-08-23T10:38:36.601Z,10.60
2022-08-23T10:41:31.659Z,16.48
2022-08-23T10:44:26.190Z,10.35
2022-08-23T10:47:28.293Z,9.50
2022-08-23T10:50:00.611Z,10.82
2022-08-23T10:52:33.260Z,10.48
2022-08-23T10:55:17.197Z,13.73
2022-08-23T10:57:48.138Z,13.93
2022-08-23T11:00:21.218Z,14.00
2022-08-23T11:03:04.942Z,8.07
2022-08-23T11:05:36.042Z,9.70
2022-08-23T11:08:07.803Z,10.75
2022-08-23T11:10:55.692Z,14.90
2022-08-23T11:13:27.835Z,11.07
2022-08-23T11:16:02.113Z,10.23
2022-08-23T11:18:37.383Z,8.82
2022-08-23T11:21:19.528Z,18.55
2022-08-23T11:23:49.342Z,14.23
2022-08-23T11:26:22.638Z,10.63
2022-08-23T11:28:52.280Z,6.68
2022-08-23T11:31:47.782Z,11.38
2022-08-23T11:34:29.596Z,11.02
2022-08-23T11:39:58.757Z,12.23
2022-08-23T11:42:29.024Z,9.05
2022-08-23T11:44:56.371Z,8.55
2022-08-23T11:47:29.777Z,16.85
2022-08-23T11:50:29.426Z,9.32
2022-08-23T11:53:30.732Z,4.80
2022-08-23T11:56:35.705Z,5.07
2022-08-23T11:59:52.747Z,5.57
2022-08-23T12:02:47.930Z,5.65
2022-08-23T12:05:20.913Z,5.85
2022-08-23T12:08:02.425Z,9.55
2022-08-23T12:10:42.894Z,12.73
2022-08-23T12:13:22.681Z,10.07
2022-08-23T12:16:17.736Z,10.30
2022-08-23T12:18:52.970Z,6.40
2022-08-23T12:21:27.655Z,5.43
2022-08-23T12:24:01.453Z,7.88
2022-08-23T12:26:40.451Z,8.55
2022-08-23T12:29:33.524Z,6.93
2022-08-23T12:32:12.651Z,6.80
2022-08-23T12:34:45.713Z,5.75
2022-08-23T12:37:31.651Z,8.98
2022-08-23T12:40:02.411Z,7.15
2022-08-23T12:50:43.625Z,11.77
2022-08-23T12:53:20.821Z,9.88
2022-08-23T12:55:51.384Z,6.30
2022-08-23T12:58:31.742Z,6.57
2022-08-23T13:01:05.834Z,6.68
2022-08-23T13:03:44.669Z,4.78
2022-08-23T13:06:17.449Z,7.82
2022-08-23T13:08:54.930Z,15.65
2022-08-23T13:11:26.346Z,8.40
2022-08-23T13:13:55.522Z,9.83
2022-08-23T13:16:37.842Z,9.18
2022-08-23T13:21:41.355Z,8.07
2022-08-23T13:24:38.313Z,6.05
2022-08-23T13:27:14.416Z,11.82
2022-08-23T13:29:57.507Z,7.53
2022-08-23T13:32:44.596Z,8.40
2022-08-23T13:35:42.382Z,5.47
2022-08-23T13:38:21.280Z,12.30
2022-08-23T13:40:57.876Z,13.45
2022-08-23T13:43:27.590Z,11.43
2022-08-23T13:45:57.559Z,11.25
2022-08-23T13:48:34.903Z,8.07
2022-08-23T13:51:25.992Z,9.40
2022-08-23T13:53:54.811Z,6.30
2022-08-23T13:56:23.064Z,7.60
2022-08-23T13:59:00.462Z,12.18
2022-08-23T14:01:28.360Z,10.18
2022-08-23T14:03:55.876Z,11.95
2022-08-23T14:06:24.205Z,7.28
2022-08-23T14:08:51.877Z,9.18
2022-08-23T14:11:19.987Z,12.20
2022-08-23T14:13:48.769Z,9.65
2022-08-23T14:16:34.643Z,8.55
2022-08-23T14:20:31.271Z,10.75
2022-08-23T14:21:51.081Z,9.85
2022-08-23T14:24:21.654Z,16.58
2022-08-23T14:26:52.305Z,10.25
2022-08-23T14:29:22.777Z,10.57
2022-08-23T14:31:52.003Z,16.55
2022-08-23T14:34:19.933Z,20.15
2022-08-23T14:40:02.649Z,10.45
2022-08-23T14:42:31.929Z,10.63
2022-08-23T14:45:02.900Z,12.82
2022-08-23T14:47:31.169Z,24.40
2022-08-23T14:49:58.815Z,9.23
2022-08-23T14:52:26.657Z,11.20
2022-08-23T14:54:54.269Z,10.52
2022-08-23T14:57:21.877Z,15.68
2022-08-23T14:59:50.240Z,10.45
2022-08-23T15:02:22.459Z,11.30
2022-08-23T15:04:50.537Z,18.77
2022-08-23T15:07:19.302Z,15.85
2022-08-23T15:09:52.106Z,14.63
2022-08-23T15:15:13.196Z,13.30
2022-08-23T15:17:58.862Z,15.25
2022-08-23T15:20:32.305Z,17.60
2022-08-23T15:23:00.423Z,8.80
2022-08-23T15:25:31.285Z,18.73
2022-08-23T15:28:00.031Z,11.02
2022-08-23T15:30:27.629Z,22.23
2022-08-23T15:32:57.819Z,20.00
2022-08-23T15:35:26.790Z,19.48
2022-08-23T15:37:56.615Z,25.20
2022-08-23T15:40:25.583Z,20.73
2022-08-23T15:42:53.682Z,18.65
2022-08-23T15:45:21.250Z,20.20
2022-08-23T15:47:48.825Z,22.52
2022-08-23T15:50:18.868Z,19.95
2022-08-23T15:52:46.567Z,19.08
2022-08-23T15:55:16.225Z,20.67
2022-08-23T15:57:50.179Z,25.20
2022-08-23T16:00:19.767Z,21.05
2022-08-23T16:03:19.477Z,22.20
2022-08-23T16:05:35.335Z,20.15
2022-08-23T16:08:02.875Z,16.77
2022-08-23T16:10:30.615Z,15.00
2022-08-23T16:12:58.318Z,14.15
2022-08-23T16:15:25.823Z,19.38
2022-08-23T16:17:54.125Z,14.95
2022-08-23T16:20:21.773Z,18.80
2022-08-23T16:22:49.661Z,20.40
2022-08-23T16:25:17.264Z,19.90
2022-08-23T16:27:44.806Z,33.65
2022-08-23T16:30:12.653Z,21.17
2022-08-23T16:32:40.888Z,23.85
2022-08-23T16:35:08.914Z,26.38
2022-08-23T16:37:36.652Z,24.67
2022-08-23T16:40:06.955Z,29.20
2022-08-23T16:42:34.844Z,34.92
2022-08-23T16:45:02.527Z,34.75
2022-08-23T16:47:35.583Z,35.95
2022-08-23T16:50:02.998Z,40.67
2022-08-23T16:52:34.743Z,44.05
2022-08-23T16:55:06.442Z,45.03
2022-08-23T16:57:34.100Z,52.80
2022-08-23T17:00:02.376Z,53.45
2022-08-23T17:02:34.367Z,57.47
2022-08-23T17:05:02.463Z,52.15
2022-08-23T17:07:30.997Z,59.50
2022-08-23T17:09:58.302Z,61.65
2022-08-23T17:12:26.144Z,68.28
2022-08-23T17:14:55.025Z,70.10
2022-08-23T17:17:22.784Z,67.53
2022-08-23T17:19:50.332Z,63.55
2022-08-23T17:22:20.752Z,60.97
2022-08-23T17:24:48.425Z,62.30
2022-08-23T17:27:20.775Z,61.78
2022-08-23T17:29:48.367Z,62.30
2022-08-23T17:32:19.681Z,64.43
2022-08-23T17:34:47.559Z,62.58
2022-08-23T17:37:20.725Z,58.00
2022-08-23T17:39:49.049Z,61.17
2022-08-23T17:42:28.908Z,61.42
2022-08-23T17:44:56.371Z,50.00
2022-08-23T17:47:23.983Z,52.33
2022-08-23T17:49:51.530Z,47.88
2022-08-23T17:52:19.176Z,52.25
2022-08-23T17:54:46.726Z,46.65
2022-08-23T17:57:14.729Z,48.63
2022-08-23T17:59:43.606Z,49.00
2022-08-23T18:02:11.033Z,42.13
2022-08-23T18:04:38.750Z,42.08
2022-08-23T18:07:06.451Z,47.05
2022-08-23T18:09:35.559Z,44.85
2022-08-23T18:12:04.767Z,41.90
2022-08-23T18:14:32.359Z,43.78
2022-08-23T18:17:00.242Z,46.03
2022-08-23T18:19:27.688Z,44.65
2022-08-23T18:21:56.346Z,43.85
2022-08-23T18:24:25.544Z,39.80
2022-08-23T18:27:11.821Z,41.10
2022-08-23T18:29:39.377Z,37.58
2022-08-23T18:32:08.443Z,41.15
2022-08-23T18:34:39.520Z,38.83
2022-08-23T18:37:07.707Z,36.47
2022-08-23T18:39:35.375Z,30.77
2022-08-23T18:42:05.595Z,35.80
2022-08-23T18:44:33.166Z,36.97
2022-08-23T18:47:02.903Z,35.45
2022-08-23T18:49:30.722Z,36.80
2022-08-23T18:51:58.281Z,36.75
2022-08-23T18:54:27.461Z,34.28
2022-08-23T18:56:57.135Z,33.33
2022-08-23T18:59:25.239Z,40.63
2022-08-23T19:01:52.951Z,37.88
2022-08-23T19:04:20.634Z,35.60
2022-08-23T19:06:48.270Z,39.85
2022-08-23T19:09:16.031Z,36.58
2022-08-23T19:11:44.437Z,36.63
2022-08-23T19:14:12.832Z,34.78
2022-08-23T19:16:47.310Z,33.60
2022-08-23T19:19:15.568Z,32.10
2022-08-23T19:21:43.393Z,34.03
2022-08-23T19:24:14.067Z,34.85
2022-08-23T19:26:44.831Z,32.42
2022-08-23T19:29:12.659Z,37.53
2022-08-23T19:31:46.678Z,39.25
2022-08-23T19:34:15.950Z,36.40
2022-08-23T19:36:46.995Z,41.63
2022-08-23T19:39:16.980Z,37.63
2022-08-23T19:41:44.965Z,36.08
2022-08-23T19:44:13.059Z,38.55
2022-08-23T19:46:42.282Z,38.90
2022-08-23T19:49:12.364Z,39.15
2022-08-23T19:51:48.361Z,39.88
2022-08-23T19:54:17.314Z,34.60
2022-08-23T19:56:48.615Z,33.85
2022-08-23T19:59:21.767Z,38.17
2022-08-23T20:01:49.939Z,37.70
2022-08-23T20:04:17.956Z,35.50
2022-08-23T20:06:45.504Z,40.78
2022-08-23T20:09:13.219Z,35.60
2022-08-23T20:11:41.304Z,36.40
2022-08-23T20:14:10.228Z,39.40
2022-08-23T20:16:38.224Z,45.28
2022-08-23T20:19:09.330Z,39.58
2022-08-23T20:21:36.978Z,31.10
2022-08-23T20:24:05.042Z,42.25
2022-08-23T20:26:35.914Z,34.13
2022-08-23T20:29:05.347Z,20.20
2022-08-23T20:31:36.125Z,25.73
2022-08-23T20:34:05.440Z,17.52
2022-08-23T20:36:33.564Z,25.40
2022-08-23T20:39:01.994Z,26.50
2022-08-23T20:41:32.842Z,19.45
2022-08-23T20:44:02.083Z,16.00
2022-08-23T20:46:29.856Z,18.33
2022-08-23T20:49:00.250Z,15.60
2022-08-23T20:51:28.676Z,18.13
2022-08-23T20:53:56.739Z,16.80
2022-08-23T20:56:25.215Z,17.50
2022-08-23T20:58:53.099Z,19.25
2022-08-23T21:01:21.054Z,20.33
2022-08-23T21:03:48.752Z,18.33
2022-08-23T21:06:20.807Z,21.35
2022-08-23T21:11:21.961Z,16.17
2022-08-23T21:13:49.816Z,20.92
2022-08-23T21:16:17.753Z,17.65
2022-08-23T21:18:45.483Z,16.88
2022-08-23T21:21:13.268Z,14.77
2022-08-23T21:23:40.924Z,16.17
2022-08-23T21:26:08.759Z,15.82
2022-08-23T21:28:37.105Z,16.27
2022-08-23T21:31:13.551Z,12.60
2022-08-23T21:33:42.220Z,15.63
2022-08-23T21:36:10.752Z,14.27
2022-08-23T21:38:39.049Z,12.38
2022-08-23T21:41:11.377Z,16.80
2022-08-23T21:43:39.119Z,14.63
2022-08-23T21:46:07.475Z,19.20
2022-08-23T21:48:35.196Z,18.63
2022-08-23T21:51:02.665Z,12.32
2022-08-23T21:53:31.272Z,13.48
2022-08-23T21:55:58.719Z,13.57
2022-08-23T21:58:26.221Z,12.65
2022-08-23T22:00:53.691Z,14.90
2022-08-23T22:03:21.266Z,11.82
2022-08-23T22:05:48.784Z,14.73
2022-08-23T22:08:17.130Z,12.45
2022-08-23T22:10:56.636Z,16.75
2022-08-23T22:13:25.953Z,12.40
2022-08-23T22:15:53.132Z,15.38
2022-08-23T22:18:21.033Z,16.52
2022-08-23T22:20:48.658Z,11.77
2022-08-23T22:23:16.521Z,10.32
2022-08-23T22:25:44.016Z,15.48
2022-08-23T22:28:11.570Z,11.73
2022-08-23T22:30:39.175Z,15.52
2022-08-23T22:33:06.648Z,13.75
2022-08-23T22:35:36.479Z,13.18
2022-08-23T22:38:13.859Z,14.70
2022-08-23T22:40:52.577Z,10.80
2022-08-23T22:43:20.662Z,12.27
2022-08-23T22:45:53.779Z,16.27
2022-08-23T22:48:21.723Z,13.07
2022-08-23T22:50:53.893Z,18.75
2022-08-23T22:53:21.500Z,14.85
2022-08-23T22:55:51.900Z,18.02
2022-08-23T22:58:19.699Z,14.52
2022-08-23T23:00:47.105Z,15.07
2022-08-23T23:03:14.781Z,15.98
2022-08-23T23:05:42.254Z,19.25
2022-08-23T23:08:28.408Z,12.65
2022-08-23T23:11:01.242Z,14.70
2022-08-23T23:13:31.714Z,16.35
2022-08-23T23:16:02.936Z,12.63
2022-08-23T23:18:30.531Z,13.45
2022-08-23T23:21:00.832Z,14.48
2022-08-23T23:23:29.634Z,15.55
2022-08-23T23:25:57.115Z,14.77
2022-08-23T23:28:24.789Z,14.18
2022-08-23T23:30:54.296Z,13.15
2022-08-23T23:33:22.081Z,15.90
2022-08-23T23:35:50.341Z,19.45
2022-08-23T23:38:18.092Z,16.92
2022-08-23T23:40:45.443Z,14.52
2022-08-23T23:43:13.374Z,15.50
2022-08-23T23:45:41.495Z,18.85
2022-08-23T23:48:09.828Z,20.10
2022-08-23T23:50:46.391Z,13.90
2022-08-23T23:53:15.018Z,16.85
2022-08-23T23:55:43.563Z,14.15
2022-08-23T23:58:11.126Z,14.65
